Terminal Aerodrome Forecast
Issued by NWS

Home | Current Version | Previous Version | Text Only | Print | Product List | Glossary On
Versions: 1 2 3 4 5 6 7 8 9 10 11 12 13 14 15 16 17
000
FTUS42 KMLB 021135
TAFISM
TAF
KISM 021135Z 0212/0312 02004KT 1/2SM FG OVC002
      TEMPO 0212/0213 1/4SM FG VV002
     FM021400 03005KT 3SM BR BKN010
     FM021500 08005KT P6SM SCT020
     FM021800 07006KT P6SM SCT035
     FM030000 07006KT P6SM SCT040 BKN250
      AMD NOT SKED TIL 021200=

USA.gov is the U.S. government's official web portal to all federal, state and local government web resources and services.